createdAt,value
2023-04-24T00:00:18.771Z,0
2023-04-24T00:01:18.752Z,0
2023-04-24T00:02:18.821Z,0
2023-04-24T00:03:18.925Z,0
2023-04-24T00:04:19.053Z,0
2023-04-24T00:05:18.759Z,0
2023-04-24T00:06:18.757Z,0
2023-04-24T00:07:18.787Z,0
2023-04-24T00:08:18.757Z,0
2023-04-24T00:09:18.773Z,0
2023-04-24T00:10:18.763Z,0
2023-04-24T00:11:18.754Z,0
2023-04-24T00:12:18.776Z,0
2023-04-24T00:13:18.764Z,0
2023-04-24T00:14:18.760Z,0
2023-04-24T00:15:18.758Z,0
2023-04-24T00:16:18.807Z,0
2023-04-24T00:17:18.773Z,0
2023-04-24T00:18:18.837Z,0
2023-04-24T00:19:18.752Z,0
2023-04-24T00:20:18.761Z,0
2023-04-24T00:21:18.754Z,0
2023-04-24T00:22:18.773Z,0
2023-04-24T00:23:18.748Z,0
2023-04-24T00:24:18.752Z,0
2023-04-24T00:25:18.760Z,0
2023-04-24T00:26:18.746Z,0
2023-04-24T00:27:18.757Z,0
2023-04-24T00:28:18.747Z,0
2023-04-24T00:29:18.756Z,0
2023-04-24T00:30:18.743Z,0
2023-04-24T00:31:18.750Z,0
2023-04-24T00:32:19.182Z,0
2023-04-24T00:33:18.766Z,0
2023-04-24T00:34:18.757Z,0
2023-04-24T00:35:18.750Z,0
2023-04-24T00:36:18.762Z,0
2023-04-24T00:37:18.783Z,0
2023-04-24T00:38:18.759Z,0
2023-04-24T00:39:18.754Z,0
2023-04-24T00:40:18.758Z,0
2023-04-24T00:41:18.750Z,0
2023-04-24T00:42:18.772Z,0
2023-04-24T00:43:18.761Z,0
2023-04-24T00:44:18.765Z,0
2023-04-24T00:45:18.756Z,0
2023-04-24T00:46:18.786Z,0
2023-04-24T00:47:18.772Z,0
2023-04-24T00:48:18.782Z,0
2023-04-24T00:49:18.749Z,0
2023-04-24T00:50:18.761Z,0
2023-04-24T00:51:18.757Z,0
2023-04-24T00:52:18.821Z,0
2023-04-24T00:53:18.772Z,0
2023-04-24T00:54:18.760Z,0
2023-04-24T00:55:18.755Z,0
2023-04-24T00:56:18.751Z,0
2023-04-24T00:57:18.764Z,0
2023-04-24T00:58:18.755Z,0
2023-04-24T00:59:18.765Z,0
2023-04-24T01:00:18.773Z,0
2023-04-24T01:01:18.771Z,0
2023-04-24T01:02:18.835Z,0
2023-04-24T01:03:18.881Z,0
2023-04-24T01:04:18.915Z,0
2023-04-24T01:05:18.764Z,0
2023-04-24T01:06:18.766Z,0
2023-04-24T01:07:18.781Z,0
2023-04-24T01:08:18.752Z,0
2023-04-24T01:09:18.755Z,0
2023-04-24T01:10:18.899Z,0
2023-04-24T01:11:18.778Z,0
2023-04-24T01:12:18.786Z,0
2023-04-24T01:13:18.762Z,0
2023-04-24T01:14:18.765Z,0
2023-04-24T01:15:18.771Z,0
2023-04-24T01:16:18.837Z,0
2023-04-24T01:17:18.861Z,0
2023-04-24T01:18:18.764Z,0
2023-04-24T01:19:18.756Z,0
2023-04-24T01:20:18.762Z,0
2023-04-24T01:21:18.763Z,0
2023-04-24T01:22:18.783Z,0
2023-04-24T01:23:18.766Z,0
2023-04-24T01:24:18.764Z,0
2023-04-24T01:25:18.764Z,0
2023-04-24T01:26:18.762Z,0
2023-04-24T01:27:18.770Z,0
2023-04-24T01:28:18.776Z,0
2023-04-24T01:29:18.787Z,0
2023-04-24T01:30:18.753Z,0
2023-04-24T01:31:18.870Z,0
2023-04-24T01:32:18.825Z,0
2023-04-24T01:33:18.797Z,0
2023-04-24T01:34:18.769Z,0
2023-04-24T01:35:18.764Z,0
2023-04-24T01:36:18.763Z,0
2023-04-24T01:37:18.776Z,0
2023-04-24T01:38:18.765Z,0
2023-04-24T01:39:18.764Z,0
2023-04-24T01:40:18.769Z,0
2023-04-24T01:41:18.758Z,0
2023-04-24T01:42:18.771Z,0
2023-04-24T01:43:18.768Z,0
2023-04-24T01:44:18.787Z,0
2023-04-24T01:45:18.758Z,0
2023-04-24T01:46:18.788Z,0
2023-04-24T01:47:18.796Z,0
2023-04-24T01:48:18.766Z,0
2023-04-24T01:49:18.825Z,0
2023-04-24T01:50:18.766Z,0
2023-04-24T01:51:18.763Z,0
2023-04-24T01:52:18.782Z,0
2023-04-24T01:53:18.764Z,0
2023-04-24T01:54:18.761Z,0
2023-04-24T01:55:18.763Z,0
2023-04-24T01:56:18.761Z,0
2023-04-24T01:57:18.774Z,0
2023-04-24T01:58:18.761Z,0
2023-04-24T01:59:18.782Z,0
2023-04-24T02:00:18.770Z,0
2023-04-24T02:01:18.809Z,0
2023-04-24T02:02:18.864Z,0
2023-04-24T02:03:19.039Z,0
2023-04-24T02:04:18.885Z,0
2023-04-24T02:05:18.761Z,0
2023-04-24T02:06:18.766Z,0
2023-04-24T02:07:18.778Z,0
2023-04-24T02:08:18.766Z,0
2023-04-24T02:09:18.763Z,0
2023-04-24T02:10:18.774Z,0
2023-04-24T02:11:18.774Z,0
2023-04-24T02:12:18.777Z,0
2023-04-24T02:13:18.770Z,0
2023-04-24T02:14:18.777Z,0
2023-04-24T02:15:18.761Z,0
2023-04-24T02:16:18.838Z,0
2023-04-24T02:17:18.779Z,0
2023-04-24T02:18:18.766Z,0
2023-04-24T02:19:18.785Z,0
2023-04-24T02:20:18.753Z,0
2023-04-24T02:21:18.755Z,0
2023-04-24T02:22:18.778Z,0
2023-04-24T02:23:18.813Z,0
2023-04-24T02:24:18.763Z,0
2023-04-24T02:25:18.762Z,0
2023-04-24T02:26:18.779Z,0
2023-04-24T02:27:18.794Z,0
2023-04-24T02:28:18.768Z,0
2023-04-24T02:29:18.789Z,0
2023-04-24T02:30:18.769Z,0
2023-04-24T02:31:18.771Z,0
2023-04-24T02:32:18.830Z,0
2023-04-24T02:33:18.756Z,0
2023-04-24T02:34:18.763Z,0
2023-04-24T02:35:18.841Z,0
2023-04-24T02:36:18.774Z,0
2023-04-24T02:37:18.785Z,0
2023-04-24T02:38:18.765Z,0
2023-04-24T02:39:18.781Z,0
2023-04-24T02:40:18.766Z,0
2023-04-24T02:41:18.777Z,0
2023-04-24T02:42:18.775Z,0
2023-04-24T02:43:18.747Z,0
2023-04-24T02:44:18.775Z,0
2023-04-24T02:45:18.762Z,0
2023-04-24T02:46:18.845Z,0
2023-04-24T02:47:18.778Z,0
2023-04-24T02:48:18.769Z,0
2023-04-24T02:49:18.764Z,0
2023-04-24T02:50:18.778Z,0
2023-04-24T02:51:18.779Z,0
2023-04-24T02:52:18.774Z,0
2023-04-24T02:53:18.770Z,0
2023-04-24T02:54:18.753Z,0
2023-04-24T02:55:18.763Z,0
2023-04-24T02:56:18.777Z,0
2023-04-24T02:57:18.782Z,0
2023-04-24T02:58:18.763Z,0
2023-04-24T02:59:18.785Z,0
2023-04-24T03:00:18.750Z,0
2023-04-24T03:01:18.796Z,0
2023-04-24T03:02:18.893Z,0
2023-04-24T03:03:18.880Z,0
2023-04-24T03:04:18.900Z,0
2023-04-24T03:05:18.768Z,0
2023-04-24T03:06:18.758Z,0
2023-04-24T03:07:18.775Z,0
2023-04-24T03:08:18.761Z,0
2023-04-24T03:09:18.761Z,0
2023-04-24T03:10:18.757Z,0
2023-04-24T03:11:18.769Z,0
2023-04-24T03:12:18.800Z,0
2023-04-24T03:13:18.763Z,0
2023-04-24T03:14:18.779Z,0
2023-04-24T03:15:18.753Z,0
2023-04-24T03:16:18.798Z,0
2023-04-24T03:17:18.787Z,0
2023-04-24T03:18:18.810Z,0
2023-04-24T03:19:18.762Z,0
2023-04-24T03:20:18.774Z,0
2023-04-24T03:21:18.746Z,0
2023-04-24T03:22:18.778Z,0
2023-04-24T03:23:18.769Z,0
2023-04-24T03:24:18.763Z,0
2023-04-24T03:25:18.771Z,0
2023-04-24T03:26:18.767Z,0
2023-04-24T03:27:18.778Z,0
2023-04-24T03:28:18.763Z,0
2023-04-24T03:29:18.791Z,0
2023-04-24T03:30:18.752Z,0
2023-04-24T03:31:18.819Z,0
2023-04-24T03:32:18.840Z,0
2023-04-24T03:33:18.787Z,0
2023-04-24T03:34:18.777Z,0
2023-04-24T03:35:18.790Z,0
2023-04-24T03:36:18.766Z,0
2023-04-24T03:37:18.782Z,0
2023-04-24T03:38:18.783Z,0
2023-04-24T03:39:18.767Z,0
2023-04-24T03:40:18.764Z,0
2023-04-24T03:41:18.752Z,0
2023-04-24T03:42:18.782Z,0.01
2023-04-24T03:43:18.757Z,0.01
2023-04-24T03:44:18.772Z,0.01
2023-04-24T03:45:18.777Z,0.01
2023-04-24T03:46:18.783Z,0.01
2023-04-24T03:47:18.783Z,0.01
2023-04-24T03:48:18.760Z,0.01
2023-04-24T03:49:18.772Z,0.01
2023-04-24T03:50:18.757Z,0.02
2023-04-24T03:51:18.758Z,0.02
2023-04-24T03:52:18.778Z,0.02
2023-04-24T03:53:18.781Z,0.02
2023-04-24T03:54:18.760Z,0.02
2023-04-24T03:55:18.761Z,0.02
2023-04-24T03:56:18.776Z,0.02
2023-04-24T03:57:18.771Z,0.03
2023-04-24T03:58:18.758Z,0.03
2023-04-24T03:59:18.782Z,0.03
2023-04-24T04:00:18.757Z,0.03
2023-04-24T04:01:18.765Z,0.04
2023-04-24T04:02:18.988Z,0.04
2023-04-24T04:03:18.945Z,0.04
2023-04-24T04:04:18.980Z,0.05
2023-04-24T04:05:18.864Z,0.05
2023-04-24T04:06:18.764Z,0.05
2023-04-24T04:07:18.782Z,0.05
2023-04-24T04:08:18.759Z,0.06
2023-04-24T04:09:18.763Z,0.06
2023-04-24T04:10:18.748Z,0.06
2023-04-24T04:11:18.754Z,0.06
2023-04-24T04:12:18.778Z,0.06
2023-04-24T04:13:18.761Z,0.06
2023-04-24T04:14:18.789Z,0.07
2023-04-24T04:15:18.758Z,0.07
2023-04-24T04:16:18.788Z,0.07
2023-04-24T04:17:18.778Z,0.08
2023-04-24T04:18:18.819Z,0.08
2023-04-24T04:19:18.765Z,0.08
2023-04-24T04:20:18.744Z,0.09
2023-04-24T04:21:18.786Z,0.1
2023-04-24T04:22:18.782Z,0.1
2023-04-24T04:23:18.769Z,0.11
2023-04-24T04:24:18.759Z,0.12
2023-04-24T04:25:18.758Z,0.13
2023-04-24T04:26:18.754Z,0.14
2023-04-24T04:27:18.785Z,0.15
2023-04-24T04:28:18.770Z,0.16
2023-04-24T04:29:18.883Z,0.17
2023-04-24T04:30:18.750Z,0.18
2023-04-24T04:31:18.773Z,0.19
2023-04-24T04:32:18.766Z,0.2
2023-04-24T04:33:18.754Z,0.21
2023-04-24T04:34:18.759Z,0.21
2023-04-24T04:35:18.769Z,0.22
2023-04-24T04:36:18.759Z,0.23
2023-04-24T04:37:18.774Z,0.23
2023-04-24T04:38:18.761Z,0.23
2023-04-24T04:39:18.758Z,0.23
2023-04-24T04:40:18.751Z,0.22
2023-04-24T04:41:18.756Z,0.23
2023-04-24T04:42:18.769Z,0.23
2023-04-24T04:43:18.757Z,0.23
2023-04-24T04:44:18.775Z,0.23
2023-04-24T04:45:18.757Z,0.23
2023-04-24T04:46:18.951Z,0.23
2023-04-24T04:47:18.805Z,0.23
2023-04-24T04:48:18.764Z,0.23
2023-04-24T04:49:18.764Z,0.23
2023-04-24T04:50:18.753Z,0.24
2023-04-24T04:51:18.758Z,0.24
2023-04-24T04:52:18.791Z,0.25
2023-04-24T04:53:18.770Z,0.25
2023-04-24T04:54:18.762Z,0.26
2023-04-24T04:55:18.769Z,0.27
2023-04-24T04:56:18.756Z,0.29
2023-04-24T04:57:18.781Z,0.28
2023-04-24T04:58:18.771Z,0.29
2023-04-24T04:59:18.762Z,0.31
2023-04-24T05:00:18.750Z,0.33
2023-04-24T05:01:18.799Z,0.35
2023-04-24T05:02:18.837Z,0.37
2023-04-24T05:03:20.573Z,0.39
2023-04-24T05:04:18.929Z,0.4
2023-04-24T05:05:18.765Z,0.42
2023-04-24T05:06:18.757Z,0.44
2023-04-24T05:07:18.772Z,0.44
2023-04-24T05:08:26.397Z,0.46
2023-04-24T05:09:18.772Z,0.45
2023-04-24T05:10:18.750Z,0.45
2023-04-24T05:11:18.762Z,0.45
2023-04-24T05:12:18.784Z,0.46
2023-04-24T05:13:22.859Z,0.45
2023-04-24T05:14:18.770Z,0.44
2023-04-24T05:15:18.761Z,0.45
2023-04-24T05:16:18.831Z,0.45
2023-04-24T05:17:18.798Z,0.45
2023-04-24T05:18:18.765Z,0.46
2023-04-24T05:19:18.767Z,0.46
2023-04-24T05:20:18.759Z,0.47
2023-04-24T05:21:18.771Z,0.47
2023-04-24T05:22:18.778Z,0.47
2023-04-24T05:23:18.768Z,0.48
2023-04-24T05:24:18.797Z,0.48
2023-04-24T05:25:18.783Z,0.5
2023-04-24T05:26:18.777Z,0.52
2023-04-24T05:27:18.770Z,0.53
2023-04-24T05:28:18.769Z,0.55
2023-04-24T05:29:18.762Z,0.56
2023-04-24T05:30:18.750Z,0.56
2023-04-24T05:31:18.838Z,0.55
2023-04-24T05:32:18.790Z,0.56
2023-04-24T05:33:18.769Z,0.58
2023-04-24T05:34:18.774Z,0.61
2023-04-24T05:35:18.775Z,0.63
2023-04-24T05:36:18.772Z,0.65
2023-04-24T05:37:18.785Z,0.65
2023-04-24T05:38:18.763Z,0.63
2023-04-24T05:39:18.762Z,0.61
2023-04-24T05:40:18.749Z,0.61
2023-04-24T05:41:18.766Z,0.59
2023-04-24T05:42:18.785Z,0.6
2023-04-24T05:43:18.778Z,0.59
2023-04-24T05:44:18.765Z,0.55
2023-04-24T05:45:18.754Z,0.52
2023-04-24T05:46:18.798Z,0.51
2023-04-24T05:47:18.771Z,0.5
2023-04-24T05:48:18.766Z,0.49
2023-04-24T05:49:18.763Z,0.49
2023-04-24T05:50:18.772Z,0.49
2023-04-24T05:51:18.765Z,0.5
2023-04-24T05:52:18.786Z,0.52
2023-04-24T05:53:18.772Z,0.54
2023-04-24T05:54:18.765Z,0.58
2023-04-24T05:55:18.764Z,0.61
2023-04-24T05:56:18.776Z,0.62
2023-04-24T05:57:18.772Z,0.63
2023-04-24T05:58:18.766Z,0.63
2023-04-24T05:59:18.754Z,0.64
2023-04-24T06:00:18.756Z,0.65
2023-04-24T06:01:18.768Z,0.66
2023-04-24T06:02:18.885Z,0.67
2023-04-24T06:03:18.978Z,0.68
2023-04-24T06:04:19.578Z,0.7
2023-04-24T06:05:18.798Z,0.71
2023-04-24T06:06:18.768Z,0.72
2023-04-24T06:07:18.778Z,0.72
2023-04-24T06:08:18.761Z,0.73
2023-04-24T06:09:18.772Z,0.76
2023-04-24T06:10:18.765Z,0.81
2023-04-24T06:11:18.766Z,0.9
2023-04-24T06:12:18.771Z,0.97
2023-04-24T06:13:18.766Z,1.01
2023-04-24T06:14:18.784Z,1.04
2023-04-24T06:15:18.783Z,1.08
2023-04-24T06:16:18.771Z,1.1
2023-04-24T06:17:18.853Z,1.11
2023-04-24T06:18:18.761Z,1.11
2023-04-24T06:19:18.785Z,1.08
2023-04-24T06:20:18.760Z,1.04
2023-04-24T06:21:18.760Z,1.03
2023-04-24T06:22:18.769Z,1.02
2023-04-24T06:23:18.754Z,0.99
2023-04-24T06:24:18.762Z,0.95
2023-04-24T06:25:18.765Z,0.92
2023-04-24T06:26:18.761Z,0.89
2023-04-24T06:27:18.771Z,0.87
2023-04-24T06:28:18.768Z,0.83
2023-04-24T06:29:18.765Z,0.79
2023-04-24T06:30:18.759Z,0.73
2023-04-24T06:31:18.767Z,0.68
2023-04-24T06:32:18.898Z,0.65
2023-04-24T06:33:21.764Z,0.64
2023-04-24T06:34:18.769Z,0.64
2023-04-24T06:35:18.777Z,0.64
2023-04-24T06:36:18.776Z,0.64
2023-04-24T06:37:18.775Z,0.64
2023-04-24T06:38:18.764Z,0.64
2023-04-24T06:39:18.756Z,0.64
2023-04-24T06:40:18.788Z,0.62
2023-04-24T06:41:18.773Z,0.6
2023-04-24T06:42:18.774Z,0.58
2023-04-24T06:43:18.769Z,0.57
2023-04-24T06:44:18.760Z,0.58
2023-04-24T06:45:18.752Z,0.6
2023-04-24T06:46:18.781Z,0.64
2023-04-24T06:47:18.780Z,0.66
2023-04-24T06:48:18.769Z,0.69
2023-04-24T06:49:18.768Z,0.71
2023-04-24T06:50:18.780Z,0.72
2023-04-24T06:51:18.759Z,0.73
2023-04-24T06:52:18.790Z,0.72
2023-04-24T06:53:18.770Z,0.72
2023-04-24T06:54:19.010Z,0.73
2023-04-24T06:55:18.751Z,0.74
2023-04-24T06:56:18.770Z,0.76
2023-04-24T06:57:18.777Z,0.76
2023-04-24T06:58:18.770Z,0.76
2023-04-24T06:59:18.766Z,0.75
2023-04-24T07:00:18.747Z,0.74
2023-04-24T07:01:18.814Z,0.73
2023-04-24T07:02:18.822Z,0.71
2023-04-24T07:03:18.886Z,0.69
2023-04-24T07:04:18.875Z,0.66
2023-04-24T07:05:18.769Z,0.65
2023-04-24T07:06:18.766Z,0.63
2023-04-24T07:07:18.772Z,0.63
2023-04-24T07:08:18.758Z,0.57
2023-04-24T07:09:18.791Z,0.54
2023-04-24T07:10:18.777Z,0.51
2023-04-24T07:11:18.758Z,0.5
2023-04-24T07:12:18.774Z,0.49
2023-04-24T07:13:18.777Z,0.48
2023-04-24T07:14:18.767Z,0.46
2023-04-24T07:15:18.758Z,0.46
2023-04-24T07:16:18.793Z,0.45
2023-04-24T07:17:18.788Z,0.45
2023-04-24T07:18:18.765Z,0.45
2023-04-24T07:19:18.758Z,0.44
2023-04-24T07:20:18.777Z,0.43
2023-04-24T07:21:18.759Z,0.43
2023-04-24T07:22:18.794Z,0.44
2023-04-24T07:23:18.778Z,0.44
2023-04-24T07:24:20.374Z,0.45
2023-04-24T07:25:18.756Z,0.46
2023-04-24T07:26:18.766Z,0.46
2023-04-24T07:27:18.792Z,0.45
2023-04-24T07:28:18.779Z,0.45
2023-04-24T07:29:18.757Z,0.44
2023-04-24T07:30:18.776Z,0.43
2023-04-24T07:31:18.843Z,0.44
2023-04-24T07:32:18.768Z,0.45
2023-04-24T07:33:18.796Z,0.47
2023-04-24T07:34:18.769Z,0.5
2023-04-24T07:35:18.786Z,0.52
2023-04-24T07:36:18.773Z,0.55
2023-04-24T07:37:18.787Z,0.59
2023-04-24T07:38:18.756Z,0.63
2023-04-24T07:39:18.781Z,0.68
2023-04-24T07:40:18.751Z,0.74
2023-04-24T07:41:18.780Z,0.78
2023-04-24T07:42:18.780Z,0.82
2023-04-24T07:43:18.761Z,0.86
2023-04-24T07:44:18.764Z,0.9
2023-04-24T07:45:18.778Z,0.9
2023-04-24T07:46:18.830Z,0.89
2023-04-24T07:47:18.771Z,0.89
2023-04-24T07:48:18.763Z,0.9
2023-04-24T07:49:20.015Z,0.92
2023-04-24T07:50:18.770Z,0.94
2023-04-24T07:51:18.758Z,0.97
2023-04-24T07:52:18.782Z,1
2023-04-24T07:53:18.767Z,1.02
2023-04-24T07:54:18.763Z,1.04
2023-04-24T07:55:19.878Z,1.07
2023-04-24T07:56:18.764Z,1.1
2023-04-24T07:57:18.767Z,1.13
2023-04-24T07:58:18.767Z,1.16
2023-04-24T07:59:18.767Z,1.2
2023-04-24T08:00:18.792Z,1.22
2023-04-24T08:01:18.767Z,1.25
2023-04-24T08:02:18.822Z,1.26
2023-04-24T08:03:18.895Z,1.29
2023-04-24T08:04:18.961Z,1.32
2023-04-24T08:05:18.903Z,1.36
2023-04-24T08:06:18.766Z,1.4
2023-04-24T08:07:18.770Z,1.4
2023-04-24T08:08:18.765Z,1.46
2023-04-24T08:09:18.774Z,1.49
2023-04-24T08:10:18.760Z,1.51
2023-04-24T08:11:18.763Z,1.51
2023-04-24T08:12:18.777Z,1.51
2023-04-24T08:13:18.766Z,1.5
2023-04-24T08:14:18.776Z,1.47
2023-04-24T08:15:18.762Z,1.44
2023-04-24T08:16:18.853Z,1.4
2023-04-24T08:17:18.765Z,1.35
2023-04-24T08:18:18.781Z,1.31
2023-04-24T08:19:18.783Z,1.27
2023-04-24T08:20:18.794Z,1.25
2023-04-24T08:21:18.764Z,1.21
2023-04-24T08:22:18.803Z,1.2
2023-04-24T08:23:18.775Z,1.19
2023-04-24T08:24:18.761Z,1.19
2023-04-24T08:25:18.765Z,1.18
2023-04-24T08:26:18.761Z,1.17
2023-04-24T08:27:18.787Z,1.16
2023-04-24T08:28:18.766Z,1.15
2023-04-24T08:29:18.753Z,1.13
2023-04-24T08:30:18.752Z,1.11
2023-04-24T08:31:18.786Z,1.1
2023-04-24T08:32:18.811Z,1.09
2023-04-24T08:33:18.762Z,1.09
2023-04-24T08:34:18.771Z,1.1
2023-04-24T08:35:18.788Z,1.1
2023-04-24T08:36:18.757Z,1.1
2023-04-24T08:37:18.783Z,1.09
2023-04-24T08:38:18.764Z,1.09
2023-04-24T08:39:18.762Z,1.09
2023-04-24T08:40:18.765Z,1.08
2023-04-24T08:41:18.772Z,1.06
2023-04-24T08:42:18.789Z,1.03
2023-04-24T08:43:18.765Z,1.01
2023-04-24T08:44:18.766Z,1.01
2023-04-24T08:45:18.752Z,1.01
2023-04-24T08:46:18.796Z,1.02
2023-04-24T08:47:18.855Z,1.04
2023-04-24T08:48:27.732Z,1.07
2023-04-24T08:49:18.813Z,1.12
2023-04-24T08:50:18.806Z,1.15
2023-04-24T08:51:18.793Z,1.19
2023-04-24T08:52:18.784Z,1.24
2023-04-24T08:53:18.783Z,1.28
2023-04-24T08:54:18.769Z,1.33
2023-04-24T08:55:18.768Z,1.38
2023-04-24T08:56:18.760Z,1.44
2023-04-24T08:57:18.799Z,1.49
2023-04-24T08:58:18.766Z,1.56
2023-04-24T08:59:18.771Z,1.67
2023-04-24T09:00:18.886Z,1.8
2023-04-24T09:01:18.847Z,1.93
2023-04-24T09:02:18.862Z,2.05
2023-04-24T09:03:18.850Z,2.12
2023-04-24T09:04:19.125Z,2.17
2023-04-24T09:05:18.793Z,2.21
2023-04-24T09:06:18.780Z,2.23
2023-04-24T09:07:18.771Z,2.23
2023-04-24T09:08:18.768Z,2.2
2023-04-24T09:09:18.768Z,2.17
2023-04-24T09:10:18.882Z,2.17
2023-04-24T09:11:18.762Z,2.15
2023-04-24T09:12:18.776Z,2.15
2023-04-24T09:13:18.772Z,2.12
2023-04-24T09:14:18.766Z,2.08
2023-04-24T09:15:18.769Z,2.05
2023-04-24T09:16:18.806Z,2.08
2023-04-24T09:17:18.774Z,2.12
2023-04-24T09:18:18.779Z,2.12
2023-04-24T09:19:18.761Z,2.06
2023-04-24T09:20:18.834Z,1.96
2023-04-24T09:21:18.764Z,1.92
2023-04-24T09:22:18.772Z,1.92
2023-04-24T09:23:18.769Z,1.97
2023-04-24T09:24:18.805Z,2.03
2023-04-24T09:25:18.784Z,2.05
2023-04-24T09:26:18.763Z,2.09
2023-04-24T09:27:18.784Z,2.12
2023-04-24T09:28:18.767Z,2.13
2023-04-24T09:29:18.780Z,2.1
2023-04-24T09:30:18.836Z,2.07
2023-04-24T09:31:18.811Z,2.07
2023-04-24T09:32:18.784Z,2.07
2023-04-24T09:33:18.767Z,2.07
2023-04-24T09:34:18.763Z,2.09
2023-04-24T09:35:18.773Z,2.11
2023-04-24T09:36:18.765Z,2.19
2023-04-24T09:37:18.769Z,2.32
2023-04-24T09:38:18.782Z,2.4
2023-04-24T09:39:18.766Z,2.5
2023-04-24T09:40:18.752Z,2.67
2023-04-24T09:41:18.765Z,2.92
2023-04-24T09:42:18.787Z,2.94
2023-04-24T09:43:18.756Z,2.89
2023-04-24T09:44:18.766Z,2.86
2023-04-24T09:45:18.771Z,2.76
2023-04-24T09:46:18.769Z,2.62
2023-04-24T09:47:18.770Z,2.53
2023-04-24T09:48:18.760Z,2.38
2023-04-24T09:49:18.759Z,2.21
2023-04-24T09:50:20.718Z,2.11
2023-04-24T09:51:18.757Z,2.09
2023-04-24T09:52:18.771Z,2.11
2023-04-24T09:53:18.759Z,2.1
2023-04-24T09:54:18.772Z,2.07
2023-04-24T09:55:18.759Z,2.02
2023-04-24T09:56:18.771Z,1.95
2023-04-24T09:57:18.780Z,1.84
2023-04-24T09:58:18.764Z,1.75
2023-04-24T09:59:18.768Z,1.72
2023-04-24T10:00:18.748Z,1.68
2023-04-24T10:01:18.822Z,1.66
2023-04-24T10:02:18.892Z,1.67
2023-04-24T10:03:18.846Z,1.67
2023-04-24T10:04:18.792Z,1.65
2023-04-24T10:05:18.839Z,1.66
2023-04-24T10:06:18.775Z,1.68
2023-04-24T10:07:18.771Z,1.68
2023-04-24T10:08:18.765Z,1.68
2023-04-24T10:09:18.758Z,1.77
2023-04-24T10:10:18.755Z,1.8
2023-04-24T10:11:18.763Z,1.83
2023-04-24T10:12:18.775Z,1.84
2023-04-24T10:13:18.819Z,1.79
2023-04-24T10:14:18.755Z,1.76
2023-04-24T10:15:18.764Z,1.75
2023-04-24T10:16:18.836Z,1.76
2023-04-24T10:17:18.785Z,1.76
2023-04-24T10:18:18.778Z,1.77
2023-04-24T10:19:18.763Z,1.79
2023-04-24T10:20:18.795Z,1.8
2023-04-24T10:21:18.770Z,1.79
2023-04-24T10:22:18.799Z,1.82
2023-04-24T10:23:18.771Z,1.81
2023-04-24T10:24:18.844Z,1.78
2023-04-24T10:25:18.761Z,1.71
2023-04-24T10:26:18.770Z,1.65
2023-04-24T10:27:18.777Z,1.62
2023-04-24T10:28:18.775Z,1.6
2023-04-24T10:29:18.763Z,1.52
2023-04-24T10:30:18.756Z,1.47
2023-04-24T10:31:18.797Z,1.42
2023-04-24T10:32:18.773Z,1.38
2023-04-24T10:33:18.814Z,1.35
2023-04-24T10:34:18.805Z,1.34
2023-04-24T10:35:18.792Z,1.34
2023-04-24T10:36:18.777Z,1.33
2023-04-24T10:37:18.787Z,1.35
2023-04-24T10:38:18.748Z,1.34
2023-04-24T10:39:18.778Z,1.35
2023-04-24T10:40:18.774Z,1.35
2023-04-24T10:41:18.765Z,1.35
2023-04-24T10:42:18.788Z,1.34
2023-04-24T10:43:18.770Z,1.35
2023-04-24T10:44:18.775Z,1.34
2023-04-24T10:45:18.761Z,1.32
2023-04-24T10:46:18.786Z,1.3
2023-04-24T10:47:18.776Z,1.27
2023-04-24T10:48:18.813Z,1.22
2023-04-24T10:49:18.762Z,1.19
2023-04-24T10:50:18.776Z,1.16
2023-04-24T10:51:18.774Z,1.14
2023-04-24T10:52:18.786Z,1.12
2023-04-24T10:53:18.762Z,1.12
2023-04-24T10:54:18.769Z,1.14
2023-04-24T10:55:18.769Z,1.17
2023-04-24T10:56:18.772Z,1.18
2023-04-24T10:57:18.775Z,1.2
2023-04-24T10:58:18.800Z,1.22
2023-04-24T10:59:18.758Z,1.22
2023-04-24T11:00:18.777Z,1.19
2023-04-24T11:01:18.814Z,1.15
2023-04-24T11:02:18.899Z,1.1
2023-04-24T11:03:18.917Z,1.07
2023-04-24T11:04:18.837Z,1.05
2023-04-24T11:05:18.828Z,1.06
2023-04-24T11:06:18.777Z,1.07
2023-04-24T11:07:18.770Z,1.09
2023-04-24T11:08:18.761Z,1.09
2023-04-24T11:09:18.761Z,1.11
2023-04-24T11:10:18.751Z,1.12
2023-04-24T11:11:18.757Z,1.12
2023-04-24T11:12:18.763Z,1.1
2023-04-24T11:13:18.762Z,1.09
2023-04-24T11:14:18.756Z,1.11
2023-04-24T11:15:18.753Z,1.14
2023-04-24T11:16:18.858Z,1.18
2023-04-24T11:17:18.766Z,1.22
2023-04-24T11:18:18.749Z,1.25
2023-04-24T11:19:18.771Z,1.31
2023-04-24T11:20:27.463Z,1.39
2023-04-24T11:21:18.762Z,1.47
2023-04-24T11:22:18.767Z,1.53
2023-04-24T11:23:18.753Z,1.59
2023-04-24T11:24:18.758Z,1.68
2023-04-24T11:25:18.769Z,1.74
2023-04-24T11:26:18.754Z,1.79
2023-04-24T11:27:18.760Z,1.84
2023-04-24T11:28:18.752Z,1.88
2023-04-24T11:29:20.351Z,1.89
2023-04-24T11:30:18.766Z,1.87
2023-04-24T11:31:18.813Z,1.83
2023-04-24T11:32:18.812Z,1.78
2023-04-24T11:33:18.772Z,1.75
2023-04-24T11:34:18.760Z,1.75
2023-04-24T11:35:18.780Z,1.77
2023-04-24T11:36:18.763Z,1.78
2023-04-24T11:37:18.773Z,1.78
2023-04-24T11:38:24.477Z,1.8
2023-04-24T11:39:18.763Z,1.81
2023-04-24T11:40:18.769Z,1.81
2023-04-24T11:41:18.762Z,1.77
2023-04-24T11:42:18.774Z,1.73
2023-04-24T11:43:18.763Z,1.7
2023-04-24T11:44:18.786Z,1.7
2023-04-24T11:45:18.764Z,1.71
2023-04-24T11:46:18.823Z,1.73
2023-04-24T11:47:18.783Z,1.77
2023-04-24T11:48:18.760Z,1.78
2023-04-24T11:49:18.758Z,1.79
2023-04-24T11:50:18.777Z,1.79
2023-04-24T11:51:18.760Z,1.77
2023-04-24T11:52:18.762Z,1.8
2023-04-24T11:53:18.770Z,1.82
2023-04-24T11:54:18.764Z,1.86
2023-04-24T11:55:18.785Z,1.89
2023-04-24T11:56:18.761Z,1.89
2023-04-24T11:57:20.055Z,1.9
2023-04-24T11:58:18.761Z,1.92
2023-04-24T11:59:18.775Z,1.97
2023-04-24T12:00:18.814Z,2.05
2023-04-24T12:01:18.783Z,2.16
2023-04-24T12:02:18.823Z,2.25
2023-04-24T12:03:18.849Z,2.33
2023-04-24T12:04:19.151Z,2.4
2023-04-24T12:05:19.201Z,2.52
2023-04-24T12:06:18.858Z,2.63
2023-04-24T12:07:18.781Z,2.78
2023-04-24T12:08:18.768Z,2.91
2023-04-24T12:09:18.845Z,2.64
2023-04-24T12:10:18.746Z,2.54
2023-04-24T12:11:18.764Z,2.14
2023-04-24T12:12:18.787Z,1.94
2023-04-24T12:13:18.761Z,1.84
2023-04-24T12:14:18.759Z,1.79
2023-04-24T12:15:18.773Z,1.75
2023-04-24T12:16:18.818Z,1.67
2023-04-24T12:17:18.785Z,1.65
2023-04-24T12:18:18.820Z,1.7
2023-04-24T12:19:18.758Z,1.78
2023-04-24T12:20:18.783Z,1.88
2023-04-24T12:21:20.070Z,2.03
2023-04-24T12:22:18.774Z,2.24
2023-04-24T12:23:18.773Z,2.51
2023-04-24T12:24:18.771Z,2.89
2023-04-24T12:25:18.779Z,3.43
2023-04-24T12:26:18.766Z,3.87
2023-04-24T12:27:18.775Z,4.66
2023-04-24T12:28:18.753Z,5.22
2023-04-24T12:29:18.776Z,6.22
2023-04-24T12:30:18.769Z,5.23
2023-04-24T12:31:18.810Z,4.45
2023-04-24T12:32:18.763Z,4.62
2023-04-24T12:33:18.755Z,5.29
2023-04-24T12:34:18.762Z,5.9
2023-04-24T12:35:18.779Z,5.76
2023-04-24T12:36:18.758Z,5.95
2023-04-24T12:37:18.778Z,6.65
2023-04-24T12:38:18.764Z,6.25
2023-04-24T12:39:18.757Z,5.48
2023-04-24T12:40:18.769Z,5.76
2023-04-24T12:41:18.760Z,5.72
2023-04-24T12:42:18.774Z,5.28
2023-04-24T12:43:18.770Z,3.75
2023-04-24T12:44:18.767Z,3.75
2023-04-24T12:45:24.126Z,3.75
2023-04-24T12:46:23.246Z,4.97
2023-04-24T12:47:23.129Z,3.28
2023-04-24T12:48:23.148Z,3.13
2023-04-24T12:49:23.119Z,2.96
2023-04-24T12:50:23.112Z,2.8
2023-04-24T12:51:23.131Z,2.67
2023-04-24T12:52:23.108Z,2.86
2023-04-24T12:53:23.123Z,4.43
2023-04-24T12:54:23.145Z,4.91
2023-04-24T12:55:23.126Z,4.09
2023-04-24T12:56:23.116Z,3.7
2023-04-24T12:57:23.120Z,2.86
2023-04-24T12:58:23.112Z,2.51
2023-04-24T12:59:23.122Z,2.42
2023-04-24T13:00:23.128Z,2.48
2023-04-24T13:01:23.181Z,2.25
2023-04-24T13:02:23.300Z,2.17
2023-04-24T13:03:23.277Z,2.07
2023-04-24T13:04:23.180Z,2.1
2023-04-24T13:05:25.169Z,2.3
2023-04-24T13:06:23.116Z,2.46
2023-04-24T13:07:23.120Z,2.74
2023-04-24T13:08:23.124Z,2.91
2023-04-24T13:09:23.112Z,5.16
2023-04-24T13:10:23.098Z,2.74
2023-04-24T13:11:23.099Z,2.31
2023-04-24T13:12:23.118Z,2.12
2023-04-24T13:13:23.115Z,1.88
2023-04-24T13:14:23.113Z,1.6
2023-04-24T13:15:23.109Z,1.36
2023-04-24T13:16:23.131Z,1.23
2023-04-24T13:17:23.149Z,1.13
2023-04-24T13:18:23.121Z,1.06
2023-04-24T13:19:23.105Z,0.91
2023-04-24T13:20:23.108Z,0.78
2023-04-24T13:21:23.115Z,0.72
2023-04-24T13:22:23.107Z,0.69
2023-04-24T13:23:23.108Z,0.67
2023-04-24T13:24:23.104Z,0.66
2023-04-24T13:25:23.108Z,0.69
2023-04-24T13:26:23.109Z,0.78
2023-04-24T13:27:23.116Z,0.98
2023-04-24T13:28:23.108Z,1.57
2023-04-24T13:29:23.111Z,2.65
2023-04-24T13:30:23.103Z,3.68
2023-04-24T13:31:23.142Z,3.19
2023-04-24T13:32:23.189Z,2.31
2023-04-24T13:33:23.112Z,2.02
2023-04-24T13:34:23.104Z,1.87
2023-04-24T13:35:23.117Z,1.84
2023-04-24T13:36:23.141Z,1.81
2023-04-24T13:37:23.100Z,1.78
2023-04-24T13:38:23.112Z,1.72
2023-04-24T13:39:23.103Z,1.62
2023-04-24T13:40:23.088Z,1.54
2023-04-24T13:41:23.113Z,1.55
2023-04-24T13:42:23.108Z,1.66